Time;durP1;ratioP1;P1;durP2;ratioP2;P2;SDS_P1;SDS_P2;PMS_P1;PMS_P2;Temp;Humidity;BMP_temperature;BMP_pressure;BME280_temperature;BME280_humidity;BME280_pressure;Samples;Min_cycle;Max_cycle;Signal;HPM_P1;HPM_P2
2021/03/25 00:01:46;;;;;;;;;;;;;;;24.03;35.87;100228.28;4484178;32;33371;-57
2021/03/25 00:04:14;;;;;;;;;;;;;;;24.02;35.92;100225.78;4480944;32;33796;-52
2021/03/25 00:06:42;;;;;;;;;;;;;;;24.02;35.96;100223.87;4483753;32;33720;-55
2021/03/25 00:09:11;;;;;;;;;;;;;;;24.01;35.91;100230.37;4481664;32;34157;-51
2021/03/25 00:11:38;;;;;;;;;;;;;;;24.00;36.05;100225.97;4468445;32;33396;-55
2021/03/25 00:14:05;;;;;;;;;;;;;;;24.00;36.08;100230.59;4468180;32;33984;-53
2021/03/25 00:16:31;;;;;;;;;;;;;;;23.99;36.05;100226.22;4468311;32;34068;-51
2021/03/25 00:18:59;;;;;;;;;;;;;;;23.98;36.12;100219.94;4468450;32;34417;-54
2021/03/25 00:21:26;;;;;;;;;;;;;;;23.97;36.15;100226.44;4469741;32;34140;-52
2021/03/25 00:23:53;;;;;;;;;;;;;;;23.96;36.12;100227.47;4468155;32;34113;-49
2021/03/25 00:26:20;;;;;;;;;;;;;;;23.95;36.17;100223.09;4468128;32;34098;-56
2021/03/25 00:28:47;;;;;;;;;;;;;;;23.95;36.21;100225.81;4468003;32;34068;-57
2021/03/25 00:31:14;;;;;;;;;;;;;;;23.94;36.25;100224.16;4468136;32;33263;-56
2021/03/25 00:33:41;;;;;;;;;;;;;;;23.93;36.37;100222.47;4467941;32;35143;-52
2021/03/25 00:36:08;;;;;;;;;;;;;;;23.93;36.50;100223.31;4467701;32;34057;-52
2021/03/25 00:38:35;;;;;;;;;;;;;;;23.92;36.50;100218.06;4472357;32;34541;-53
2021/03/25 00:41:03;;;;;;;;;;;;;;;23.91;36.48;100222.69;4483656;32;33961;-53
2021/03/25 00:43:29;;;;;;;;;;;;;;;23.90;36.48;100225.62;4483367;32;33800;-52
2021/03/25 00:45:57;;;;;;;;;;;;;;;23.90;36.42;100229.19;4483577;32;33735;-55
2021/03/25 00:48:24;;;;;;;;;;;;;;;23.89;36.53;100229.41;4477726;32;33627;-58
2021/03/25 00:50:52;;;;;;;;;;;;;;;23.88;36.52;100220.41;4480097;32;32882;-52
2021/03/25 00:53:22;;;;;;;;;;;;;;;23.87;36.57;100224.16;4479451;32;34128;-54
2021/03/25 00:55:49;;;;;;;;;;;;;;;23.87;36.55;100223.34;4483214;32;34218;-49
2021/03/25 00:58:15;;;;;;;;;;;;;;;23.86;36.61;100227.97;4483298;32;34836;-52
2021/03/25 01:00:43;;;;;;;;;;;;;;;23.85;36.58;100220.00;4479869;32;33979;-59
2021/03/25 01:03:10;;;;;;;;;;;;;;;23.84;36.62;100221.91;4496306;31;34350;-57
2021/03/25 01:05:38;;;;;;;;;;;;;;;23.83;36.67;100219.41;4500899;31;35167;-60
2021/03/25 01:08:05;;;;;;;;;;;;;;;23.83;36.77;100222.97;4485624;32;34950;-52
2021/03/25 01:10:34;;;;;;;;;;;;;;;23.82;36.76;100217.72;4485746;32;33180;-58
2021/03/25 01:13:01;;;;;;;;;;;;;;;23.82;36.80;100215.00;4485458;32;35234;-57
2021/03/25 01:15:28;;;;;;;;;;;;;;;23.81;36.78;100207.88;4484157;32;34096;-59
2021/03/25 01:17:57;;;;;;;;;;;;;;;23.80;36.78;100212.50;4485307;31;34041;-58
2021/03/25 01:20:25;;;;;;;;;;;;;;;23.81;36.69;100216.06;4501333;31;34020;-60
2021/03/25 01:22:52;;;;;;;;;;;;;;;23.79;36.76;100216.28;4501048;31;34963;-58
2021/03/25 01:25:19;;;;;;;;;;;;;;;23.78;36.75;100220.06;4501227;31;34246;-59
2021/03/25 01:27:46;;;;;;;;;;;;;;;23.77;36.75;100212.91;4501217;31;34053;-59
2021/03/25 01:30:13;;;;;;;;;;;;;;;23.77;36.75;100209.38;4501409;31;33296;-61
2021/03/25 01:32:41;;;;;;;;;;;;;;;23.75;36.77;100209.59;4501253;31;34030;-59
2021/03/25 01:35:08;;;;;;;;;;;;;;;23.75;36.73;100206.03;4500712;31;34210;-60
2021/03/25 01:37:40;;;;;;;;;;;;;;;23.74;36.74;100205.22;4501099;31;34800;-60
2021/03/25 01:40:18;;;;;;;;;;;;;;;23.74;36.75;100205.22;4501188;31;34103;-61
2021/03/25 01:42:47;;;;;;;;;;;;;;;23.72;36.83;100201.00;4501319;31;34732;-59
2021/03/25 01:45:29;;;;;;;;;;;;;;;23.72;36.87;100204.56;4501312;31;33653;-60
2021/03/25 01:47:57;;;;;;;;;;;;;;;23.71;36.82;100207.53;4501064;31;33914;-56
2021/03/25 01:50:24;;;;;;;;;;;;;;;23.70;36.87;100203.13;4501341;31;33260;-60
2021/03/25 01:53:01;;;;;;;;;;;;;;;23.68;36.85;100204.16;4500989;31;33746;-57
2021/03/25 01:55:35;;;;;;;;;;;;;;;23.68;36.80;100204.16;4487325;31;33667;-60
2021/03/25 01:58:13;;;;;;;;;;;;;;;23.68;36.83;100203.34;4470743;32;34278;-58
2021/03/25 02:00:52;;;;;;;;;;;;;;;23.67;36.88;100198.94;4471401;32;33047;-58
2021/03/25 02:03:20;;;;;;;;;;;;;;;23.66;36.90;100203.56;4485260;32;34937;-55
2021/03/25 02:05:50;;;;;;;;;;;;;;;23.65;36.94;100199.16;4485091;32;34960;-60
2021/03/25 02:08:47;;;;;;;;;;;;;;;23.64;36.93;100202.97;4471129;32;34169;-59
2021/03/25 02:11:33;;;;;;;;;;;;;;;23.63;36.89;100201.22;4468296;32;33936;-61
2021/03/25 02:14:01;;;;;;;;;;;;;;;23.63;36.93;100200.41;4485124;32;34044;-60
2021/03/25 02:16:29;;;;;;;;;;;;;;;23.61;36.88;100206.06;4471125;32;35003;-60
2021/03/25 02:19:00;;;;;;;;;;;;;;;23.62;36.96;100199.56;4485196;32;32328;-60
2021/03/25 02:21:26;;;;;;;;;;;;;;;23.61;36.94;100192.44;4485218;32;33116;-56
2021/03/25 02:24:06;;;;;;;;;;;;;;;23.60;36.92;100198.97;4484973;32;33798;-60
2021/03/25 02:26:52;;;;;;;;;;;;;;;23.60;36.96;100196.25;4484991;32;34309;-58
2021/03/25 02:29:32;;;;;;;;;;;;;;;23.59;36.98;100186.37;4470959;32;34729;-57
2021/03/25 02:32:10;;;;;;;;;;;;;;;23.58;37.18;100192.87;4485075;32;32826;-60
2021/03/25 02:34:45;;;;;;;;;;;;;;;23.58;37.10;100198.31;4471658;32;34165;-60
2021/03/25 02:37:14;;;;;;;;;;;;;;;23.58;37.11;100200.22;4470692;32;34159;-60
2021/03/25 02:40:00;;;;;;;;;;;;;;;23.57;37.08;100191.22;4471058;32;33967;-56
2021/03/25 02:42:29;;;;;;;;;;;;;;;23.58;37.03;100187.44;4485078;32;34163;-59
2021/03/25 02:45:05;;;;;;;;;;;;;;;23.57;37.22;100193.94;4484819;32;34811;-60
2021/03/25 02:47:33;;;;;;;;;;;;;;;23.56;37.22;100188.72;4470475;32;34197;-57
2021/03/25 02:50:02;;;;;;;;;;;;;;;23.56;37.17;100194.16;4470797;32;34201;-60
2021/03/25 02:52:32;;;;;;;;;;;;;;;23.56;37.20;100192.28;4470897;32;33508;-59
2021/03/25 02:55:00;;;;;;;;;;;;;;;23.54;37.18;100194.38;4476225;31;34059;-59
2021/03/25 02:57:30;;;;;;;;;;;;;;;23.54;37.17;100191.62;4499523;31;35293;-61
2021/03/25 02:59:59;;;;;;;;;;;;;;;23.54;37.18;100188.91;4499561;31;34154;-59
2021/03/25 03:02:30;;;;;;;;;;;;;;;23.55;37.16;100189.75;4499280;31;33047;-56
2021/03/25 03:05:05;;;;;;;;;;;;;;;23.53;37.12;100192.69;4499504;31;34795;-58
2021/03/25 03:07:37;;;;;;;;;;;;;;;23.53;37.12;100189.97;4498853;31;34157;-60
2021/03/25 03:10:22;;;;;;;;;;;;;;;23.52;37.25;100188.31;4499609;31;34754;-57
2021/03/25 03:12:49;;;;;;;;;;;;;;;23.51;37.20;100194.00;4500253;31;33329;-61
2021/03/25 03:15:26;;;;;;;;;;;;;;;23.51;37.21;100199.44;4498953;31;33797;-59
2021/03/25 03:18:00;;;;;;;;;;;;;;;23.50;37.25;100204.06;4499370;31;34056;-60
2021/03/25 03:20:55;;;;;;;;;;;;;;;23.50;37.21;100193.16;4499435;31;34692;-59
2021/03/25 03:23:30;;;;;;;;;;;;;;;23.49;37.22;100201.53;4497904;31;32895;-60
2021/03/25 03:25:59;;;;;;;;;;;;;;;23.48;37.20;100197.97;4499307;31;34909;-57
2021/03/25 03:28:30;;;;;;;;;;;;;;;23.48;37.24;100200.69;4499367;31;34103;-60
2021/03/25 03:31:01;;;;;;;;;;;;;;;23.47;37.22;100199.03;4499323;31;34142;-58
2021/03/25 03:33:39;;;;;;;;;;;;;;;23.47;37.21;100204.47;4499264;31;33633;-60
2021/03/25 03:36:08;;;;;;;;;;;;;;;23.46;37.20;100208.25;4498732;31;34895;-59
2021/03/25 03:38:36;;;;;;;;;;;;;;;23.45;37.13;100201.12;4498979;31;34844;-60
2021/03/25 03:41:03;;;;;;;;;;;;;;;23.45;37.14;100205.72;4499124;31;34255;-60
2021/03/25 03:43:32;;;;;;;;;;;;;;;23.45;37.15;100198.38;4499148;31;33563;-55
2021/03/25 03:46:00;;;;;;;;;;;;;;;23.44;37.21;100199.44;4500419;31;34700;-52
2021/03/25 03:48:34;;;;;;;;;;;;;;;23.44;37.20;100202.16;4498918;31;34050;-59
2021/03/25 03:51:01;;;;;;;;;;;;;;;23.44;37.19;100204.91;4500422;31;33676;-54
2021/03/25 03:53:28;;;;;;;;;;;;;;;23.42;37.24;100204.28;4499064;31;32817;-59
2021/03/25 03:56:00;;;;;;;;;;;;;;;23.42;37.29;100204.28;4489593;31;34102;-58
2021/03/25 03:58:28;;;;;;;;;;;;;;;23.42;37.22;100201.56;4483043;32;34210;-59
2021/03/25 04:00:57;;;;;;;;;;;;;;;23.41;37.24;100205.34;4483706;32;34161;-56
2021/03/25 04:03:31;;;;;;;;;;;;;;;23.42;37.21;100204.28;4481290;32;33516;-53
2021/03/25 04:06:04;;;;;;;;;;;;;;;23.40;37.34;100199.03;4478507;32;33714;-53
2021/03/25 04:08:50;;;;;;;;;;;;;;;23.40;37.33;100200.94;4496804;31;34191;-50
2021/03/25 04:11:18;;;;;;;;;;;;;;;23.39;37.29;100208.28;4495830;31;34209;-51
2021/03/25 04:13:48;;;;;;;;;;;;;;;23.37;37.32;100202.22;4484169;32;33400;-57
2021/03/25 04:16:15;;;;;;;;;;;;;;;23.37;37.32;100206.84;4484330;32;34508;-50
2021/03/25 04:19:03;;;;;;;;;;;;;;;23.37;37.31;100206.84;4482898;32;33453;-52
2021/03/25 04:21:30;;;;;;;;;;;;;;;23.36;37.28;100200.56;4482705;32;33931;-52
2021/03/25 04:23:57;;;;;;;;;;;;;;;23.35;37.35;100203.47;4491231;31;33437;-53
2021/03/25 04:26:44;;;;;;;;;;;;;;;23.35;37.35;100203.47;4485352;31;34138;-53
2021/03/25 04:29:26;;;;;;;;;;;;;;;23.34;37.34;100201.81;4485630;31;34825;-52
2021/03/25 04:31:53;;;;;;;;;;;;;;;23.33;37.40;100206.41;4499335;31;35016;-56
2021/03/25 04:34:20;;;;;;;;;;;;;;;23.32;37.36;100209.38;4485575;31;34313;-50
2021/03/25 04:36:47;;;;;;;;;;;;;;;23.33;37.41;100216.47;4501156;31;33893;-51
2021/03/25 04:39:15;;;;;;;;;;;;;;;23.32;37.32;100215.66;4486953;31;33811;-52
2021/03/25 04:41:42;;;;;;;;;;;;;;;23.32;37.38;100214.81;4501381;31;34883;-53
2021/03/25 04:44:19;;;;;;;;;;;;;;;23.32;37.41;100217.53;4487092;31;33972;-51
2021/03/25 04:46:52;;;;;;;;;;;;;;;23.32;37.38;100217.53;4501403;31;34084;-52
2021/03/25 04:49:31;;;;;;;;;;;;;;;23.32;37.54;100218.38;4487209;31;33617;-53
2021/03/25 04:51:58;;;;;;;;;;;;;;;23.31;37.53;100216.69;4486891;31;33938;-55
2021/03/25 04:54:25;;;;;;;;;;;;;;;23.30;37.48;100212.28;4486126;31;33293;-51
2021/03/25 04:56:53;;;;;;;;;;;;;;;23.30;37.48;100219.63;4485516;32;34053;-52
2021/03/25 04:59:20;;;;;;;;;;;;;;;23.29;37.44;100224.25;4484194;32;33518;-53
2021/03/25 05:01:47;;;;;;;;;;;;;;;23.29;37.49;100231.56;4485430;32;34628;-53
2021/03/25 05:04:14;;;;;;;;;;;;;;;23.30;37.42;100234.06;4483186;32;33354;-49
2021/03/25 05:06:45;;;;;;;;;;;;;;;23.29;37.41;100231.56;4487499;31;34951;-52
2021/03/25 05:09:20;;;;;;;;;;;;;;;23.29;37.44;100231.56;4500055;31;33657;-50
2021/03/25 05:11:47;;;;;;;;;;;;;;;23.28;37.46;100230.75;4485886;31;33952;-60
2021/03/25 05:14:26;;;;;;;;;;;;;;;23.27;37.49;100228.22;4495356;31;33392;-57
2021/03/25 05:16:53;;;;;;;;;;;;;;;23.26;37.48;100230.09;4500243;31;34795;-60
2021/03/25 05:19:39;;;;;;;;;;;;;;;23.26;37.48;100234.72;4485449;32;33637;-59
2021/03/25 05:22:23;;;;;;;;;;;;;;;23.27;37.46;100239.09;4485261;32;34362;-56
2021/03/25 05:25:03;;;;;;;;;;;;;;;23.24;37.52;100239.56;4473381;32;33810;-53
2021/03/25 05:27:46;;;;;;;;;;;;;;;23.23;37.51;100230.56;4484335;31;33464;-51
2021/03/25 05:30:21;;;;;;;;;;;;;;;23.23;37.55;100233.28;4478215;31;34094;-61
2021/03/25 05:32:52;;;;;;;;;;;;;;;23.23;37.48;100235.16;4499760;31;33619;-60
2021/03/25 05:35:21;;;;;;;;;;;;;;;23.22;37.53;100234.31;4481762;31;33938;-60
2021/03/25 05:37:48;;;;;;;;;;;;;;;23.23;37.61;100233.28;4471241;32;34832;-59
2021/03/25 05:40:20;;;;;;;;;;;;;;;23.23;37.66;100238.72;4485048;32;33616;-60
2021/03/25 05:42:53;;;;;;;;;;;;;;;23.23;37.67;100241.44;4471005;32;34230;-60
2021/03/25 05:45:23;;;;;;;;;;;;;;;23.22;37.67;100247.91;4485237;32;34344;-61
2021/03/25 05:47:53;;;;;;;;;;;;;;;23.22;37.65;100247.91;4492826;31;34183;-61
2021/03/25 05:50:28;;;;;;;;;;;;;;;23.21;37.63;100243.53;4501038;31;34072;-60
2021/03/25 05:53:07;;;;;;;;;;;;;;;23.22;37.62;100244.34;4500833;31;33667;-57
2021/03/25 05:55:40;;;;;;;;;;;;;;;23.22;37.64;100242.47;4500847;31;32965;-60
2021/03/25 05:58:11;;;;;;;;;;;;;;;23.21;37.65;100248.13;4499595;31;33625;-60
2021/03/25 06:00:42;;;;;;;;;;;;;;;23.20;37.65;100250.03;4500946;31;34071;-58
2021/03/25 06:03:13;;;;;;;;;;;;;;;23.21;37.67;100253.56;4499616;31;33612;-60
2021/03/25 06:05:44;;;;;;;;;;;;;;;23.21;37.60;100253.56;4499913;31;33790;-58
2021/03/25 06:08:11;;;;;;;;;;;;;;;23.20;37.63;100251.91;4499734;31;34894;-59
2021/03/25 06:10:58;;;;;;;;;;;;;;;23.20;37.59;100257.37;4500560;31;34193;-59
2021/03/25 06:13:28;;;;;;;;;;;;;;;23.19;37.53;100253.81;4500666;31;34362;-54
2021/03/25 06:16:10;;;;;;;;;;;;;;;23.17;37.60;100264.91;4492825;31;33525;-50
2021/03/25 06:18:56;;;;;;;;;;;;;;;23.18;37.69;100265.75;4481696;32;34036;-49
2021/03/25 06:21:23;;;;;;;;;;;;;;;23.17;37.63;100258.59;4478363;32;33683;-53
2021/03/25 06:23:50;;;;;;;;;;;;;;;23.16;37.66;100268.66;4494104;31;34802;-50
2021/03/25 06:26:20;;;;;;;;;;;;;;;23.16;37.64;100265.09;4493320;31;33929;-54
2021/03/25 06:28:48;;;;;;;;;;;;;;;23.17;37.60;100272.22;4483477;31;34923;-56
2021/03/25 06:31:18;;;;;;;;;;;;;;;23.17;37.67;100272.22;4499484;31;34219;-60
2021/03/25 06:34:05;;;;;;;;;;;;;;;23.16;37.60;100271.37;4487458;31;34083;-57
2021/03/25 06:36:52;;;;;;;;;;;;;;;23.16;37.63;100271.37;4474096;32;33185;-59
2021/03/25 06:39:25;;;;;;;;;;;;;;;23.15;37.60;100275.16;4482947;32;34082;-53
2021/03/25 06:42:04;;;;;;;;;;;;;;;23.16;37.63;100293.16;4475911;32;34875;-53
2021/03/25 06:44:54;;;;;;;;;;;;;;;23.15;37.60;100286.06;4495136;31;33882;-53
2021/03/25 06:47:29;;;;;;;;;;;;;;;23.15;37.57;100285.22;4481236;31;33173;-56
2021/03/25 06:49:57;;;;;;;;;;;;;;;23.15;37.56;100279.78;4486166;31;34965;-53
2021/03/25 06:52:27;;;;;;;;;;;;;;;23.14;37.55;100281.66;4480150;32;34173;-53
2021/03/25 06:54:54;;;;;;;;;;;;;;;23.13;37.51;100282.72;4482616;32;34130;-54
2021/03/25 06:57:21;;;;;;;;;;;;;;;23.14;37.47;100289.00;4477784;32;33245;-51
2021/03/25 06:59:48;;;;;;;;;;;;;;;23.13;37.48;100285.44;4478497;32;34201;-51
2021/03/25 07:02:20;;;;;;;;;;;;;;;23.14;37.59;100297.16;4485869;31;33648;-55
2021/03/25 07:04:48;;;;;;;;;;;;;;;23.15;37.46;100301.56;4500332;31;34858;-56
2021/03/25 07:07:17;;;;;;;;;;;;;;;23.13;37.48;100299.06;4483212;32;34132;-53
2021/03/25 07:09:44;;;;;;;;;;;;;;;23.15;37.62;100299.66;4483231;32;34150;-52
2021/03/25 07:12:20;;;;;;;;;;;;;;;23.13;37.47;100296.34;4484563;32;34606;-56
2021/03/25 07:14:48;;;;;;;;;;;;;;;23.13;37.62;100296.34;4483304;32;33754;-51
2021/03/25 07:17:15;;;;;;;;;;;;;;;23.15;37.51;100309.72;4484459;32;32966;-50
2021/03/25 07:19:44;;;;;;;;;;;;;;;23.14;37.50;100305.34;4484588;32;35118;-52
2021/03/25 07:22:19;;;;;;;;;;;;;;;23.14;37.46;100311.59;4483252;32;34169;-55
2021/03/25 07:24:46;;;;;;;;;;;;;;;23.14;37.48;100303.44;4484604;32;34602;-50
2021/03/25 07:27:21;;;;;;;;;;;;;;;23.13;37.46;100307.22;4484424;32;34029;-54
2021/03/25 07:30:02;;;;;;;;;;;;;;;23.13;37.59;100307.22;4483058;32;34123;-49
2021/03/25 07:32:48;;;;;;;;;;;;;;;23.13;37.61;100307.22;4484458;32;34087;-55
2021/03/25 07:35:24;;;;;;;;;;;;;;;23.13;37.57;100304.50;4484211;32;34104;-55
2021/03/25 07:37:51;;;;;;;;;;;;;;;23.14;37.61;100306.16;4483223;32;33365;-54
2021/03/25 07:40:31;;;;;;;;;;;;;;;23.12;37.63;100302.81;4482900;32;34157;-55
2021/03/25 07:43:10;;;;;;;;;;;;;;;23.12;37.62;100305.53;4484660;32;34881;-54
2021/03/25 07:46:22;;;;;;;;;;;;;;;23.13;37.54;100307.22;4484381;32;34149;-51
2021/03/25 07:48:59;;;;;;;;;;;;;;;23.13;37.67;100303.66;4499782;31;33754;-53
2021/03/25 07:51:26;;;;;;;;;;;;;;;23.13;37.67;100309.09;4500166;31;34114;-50
2021/03/25 07:54:29;;;;;;;;;;;;;;;23.13;37.50;100307.22;4499888;31;34152;-53
2021/03/25 07:56:56;;;;;;;;;;;;;;;23.12;37.51;100307.41;4434972;32;33854;-50
2021/03/25 07:59:30;;;;;;;;;;;;;;;23.12;37.46;100307.41;4487261;31;34277;-51
2021/03/25 08:01:57;;;;;;;;;;;;;;;23.11;37.44;100306.59;4499990;31;34050;-53
2021/03/25 08:04:31;;;;;;;;;;;;;;;23.11;37.48;100298.41;4499815;31;34965;-48
2021/03/25 08:07:05;;;;;;;;;;;;;;;23.10;37.45;100306.81;4499859;31;34103;-53
2021/03/25 08:09:48;;;;;;;;;;;;;;;23.09;37.13;100303.25;4499458;31;33232;-57
2021/03/25 08:12:31;;;;;;;;;;;;;;;23.07;35.18;100299.88;4499928;31;34150;-52
2021/03/25 08:15:06;;;;;;;;;;;;;;;23.08;35.67;100300.72;4498565;31;34546;-56
2021/03/25 08:17:37;;;;;;;;;;;;;;;23.06;35.70;100300.94;4498629;31;34838;-51
2021/03/25 08:20:08;;;;;;;;;;;;;;;23.09;35.11;100302.41;4498565;31;32882;-53
2021/03/25 08:22:38;;;;;;;;;;;;;;;23.14;34.39;100298.00;4499889;31;34883;-56
2021/03/25 08:25:19;;;;;;;;;;;;;;;23.21;31.81;100295.25;4499748;31;34174;-53
2021/03/25 08:27:55;;;;;;;;;;;;;;;23.22;30.67;100290.63;4498480;31;33904;-51
2021/03/25 08:30:32;;;;;;;;;;;;;;;23.29;29.77;100283.31;4499677;31;33930;-57
2021/03/25 08:33:05;;;;;;;;;;;;;;;23.41;29.85;100289.78;4498416;31;34887;-55
2021/03/25 08:35:36;;;;;;;;;;;;;;;23.55;30.10;100285.94;4498150;31;34244;-56
2021/03/25 08:38:09;;;;;;;;;;;;;;;23.69;30.43;100286.75;4499338;31;33559;-56
2021/03/25 08:40:41;;;;;;;;;;;;;;;23.86;30.58;100287.91;4499668;31;32949;-54
2021/03/25 08:43:28;;;;;;;;;;;;;;;24.02;30.67;100283.84;4499528;31;34546;-51
2021/03/25 08:45:57;;;;;;;;;;;;;;;24.19;30.86;100282.25;4499363;31;34113;-52
2021/03/25 08:48:29;;;;;;;;;;;;;;;24.37;30.99;100283.44;4487617;31;35263;-52
2021/03/25 08:51:15;;;;;;;;;;;;;;;24.52;31.13;100280.38;4483629;32;33838;-55
2021/03/25 08:53:49;;;;;;;;;;;;;;;24.67;31.16;100275.44;4482634;32;33703;-51
2021/03/25 08:56:43;;;;;;;;;;;;;;;24.84;31.24;100278.44;4477123;32;34130;-54
2021/03/25 08:59:29;;;;;;;;;;;;;;;24.97;31.27;100277.47;4481081;32;34451;-52
2021/03/25 09:02:16;;;;;;;;;;;;;;;25.09;31.40;100276.53;4481849;32;33818;-59
2021/03/25 09:04:52;;;;;;;;;;;;;;;25.20;31.35;100272.22;4482171;32;34332;-57
2021/03/25 09:07:19;;;;;;;;;;;;;;;25.28;31.36;100271.09;4483348;32;35000;-58
2021/03/25 09:09:50;;;;;;;;;;;;;;;25.34;31.36;100275.63;4482249;32;34164;-60
2021/03/25 09:12:20;;;;;;;;;;;;;;;25.38;31.38;100276.84;4466418;32;33321;-60
2021/03/25 09:14:47;;;;;;;;;;;;;;;25.41;31.40;100270.91;4473733;32;34307;-55
2021/03/25 09:17:16;;;;;;;;;;;;;;;25.43;31.30;100260.59;4479952;32;33986;-51
2021/03/25 09:19:44;;;;;;;;;;;;;;;25.43;31.36;100264.16;4481171;32;34886;-54
2021/03/25 09:22:31;;;;;;;;;;;;;;;25.43;31.45;100266.91;4483164;32;33637;-55
2021/03/25 09:25:17;;;;;;;;;;;;;;;25.42;31.59;100267.97;4485232;32;34192;-52
2021/03/25 09:27:56;;;;;;;;;;;;;;;25.41;31.71;100258.13;4484868;32;33813;-55
2021/03/25 09:30:35;;;;;;;;;;;;;;;25.38;31.86;100253.09;4484520;32;34812;-55
2021/03/25 09:33:21;;;;;;;;;;;;;;;25.36;32.00;100254.37;4484780;32;33271;-55
2021/03/25 09:35:48;;;;;;;;;;;;;;;25.33;32.12;100252.12;4484361;32;34254;-53
2021/03/25 09:38:31;;;;;;;;;;;;;;;25.30;32.24;100256.12;4485091;32;35332;-52
2021/03/25 09:40:57;;;;;;;;;;;;;;;25.28;32.31;100249.25;4478892;32;33861;-56
2021/03/25 09:43:24;;;;;;;;;;;;;;;25.25;32.45;100249.69;4467996;32;33322;-56
2021/03/25 09:45:51;;;;;;;;;;;;;;;25.22;32.56;100253.69;4469665;32;34060;-55
2021/03/25 09:48:24;;;;;;;;;;;;;;;25.18;32.63;100253.34;4481032;32;34905;-52
2021/03/25 09:51:01;;;;;;;;;;;;;;;25.17;32.67;100246.19;4483589;32;34131;-54
2021/03/25 09:53:28;;;;;;;;;;;;;;;25.14;32.80;100254.00;4484107;32;34036;-57
2021/03/25 09:56:00;;;;;;;;;;;;;;;25.10;32.94;100245.44;4477124;32;34128;-53
2021/03/25 09:58:43;;;;;;;;;;;;;;;25.07;33.06;100253.22;4484633;32;34308;-57
2021/03/25 10:01:31;;;;;;;;;;;;;;;25.04;33.17;100256.38;4470336;32;34147;-53
2021/03/25 10:03:59;;;;;;;;;;;;;;;24.98;33.28;100260.84;4470039;32;33353;-56
2021/03/25 10:06:44;;;;;;;;;;;;;;;24.93;33.39;100252.50;4468972;32;34126;-55
2021/03/25 10:09:11;;;;;;;;;;;;;;;24.90;33.50;100251.09;4476150;32;33829;-51
2021/03/25 10:11:50;;;;;;;;;;;;;;;24.86;33.63;100238.94;4485104;32;34047;-56
2021/03/25 10:14:35;;;;;;;;;;;;;;;24.83;33.71;100244.84;4484755;32;33448;-59
2021/03/25 10:17:02;;;;;;;;;;;;;;;24.80;33.79;100241.72;4484584;32;34119;-54
2021/03/25 10:19:43;;;;;;;;;;;;;;;24.76;33.90;100235.91;4485176;32;34744;-54
2021/03/25 10:22:17;;;;;;;;;;;;;;;24.72;33.97;100237.41;4482797;32;33932;-57
2021/03/25 10:24:50;;;;;;;;;;;;;;;24.67;34.06;100229.88;4469057;32;33345;-53
2021/03/25 10:27:30;;;;;;;;;;;;;;;24.67;34.14;100223.59;4467873;32;35059;-52
2021/03/25 10:29:57;;;;;;;;;;;;;;;24.64;34.22;100230.31;4467866;32;34147;-58
2021/03/25 10:32:28;;;;;;;;;;;;;;;24.60;34.34;100225.53;4470150;32;35110;-54
2021/03/25 10:34:56;;;;;;;;;;;;;;;24.59;34.36;100227.44;4483531;32;33340;-56
2021/03/25 10:37:39;;;;;;;;;;;;;;;24.59;34.42;100219.25;4483323;32;34578;-55
2021/03/25 10:40:26;;;;;;;;;;;;;;;24.56;34.50;100222.41;4483307;32;34268;-53
2021/03/25 10:42:55;;;;;;;;;;;;;;;24.53;34.53;100220.16;4468230;32;33976;-55
2021/03/25 10:45:46;;;;;;;;;;;;;;;24.52;34.52;100214.91;4481417;32;34116;-56
2021/03/25 10:48:28;;;;;;;;;;;;;;;24.50;34.55;100220.59;4471031;31;34699;-53
2021/03/25 10:51:00;;;;;;;;;;;;;;;24.48;34.61;100210.94;4488137;31;34062;-52
2021/03/25 10:53:35;;;;;;;;;;;;;;;24.45;34.64;100217.72;4486125;31;34021;-51
2021/03/25 10:56:06;;;;;;;;;;;;;;;24.43;34.69;100214.34;4485904;31;32885;-50
2021/03/25 10:58:37;;;;;;;;;;;;;;;24.41;34.74;100208.28;4486244;31;34067;-51
2021/03/25 11:01:13;;;;;;;;;;;;;;;24.39;34.76;100202.25;4486153;31;34201;-50
2021/03/25 11:03:40;;;;;;;;;;;;;;;24.37;34.78;100202.44;4480808;32;34756;-54
2021/03/25 11:06:14;;;;;;;;;;;;;;;24.37;34.86;100204.34;4468740;32;34027;-54
2021/03/25 11:08:41;;;;;;;;;;;;;;;24.35;34.89;100203.72;4470793;32;34168;-54
2021/03/25 11:11:16;;;;;;;;;;;;;;;24.33;34.93;100203.91;4484361;32;34166;-50
2021/03/25 11:13:43;;;;;;;;;;;;;;;24.31;34.94;100203.31;4484303;32;34205;-52
2021/03/25 11:16:18;;;;;;;;;;;;;;;24.29;35.01;100199.13;4484232;32;33195;-55
2021/03/25 11:18:47;;;;;;;;;;;;;;;24.26;34.97;100205.88;4483213;32;34184;-52
2021/03/25 11:21:23;;;;;;;;;;;;;;;24.23;34.65;100203.59;4483057;32;34089;-56
2021/03/25 11:23:56;;;;;;;;;;;;;;;24.25;34.71;100203.34;4484314;32;34435;-57
2021/03/25 11:26:23;;;;;;;;;;;;;;;24.22;34.61;100193.75;4483040;32;33650;-66
2021/03/25 11:28:49;;;;;;;;;;;;;;;24.22;33.97;100184.72;4484622;32;34403;-66
2021/03/25 11:31:24;;;;;;;;;;;;;;;24.21;32.30;100185.78;4483136;32;34183;-66
2021/03/25 11:33:51;;;;;;;;;;;;;;;24.17;31.63;100183.50;4484248;32;34051;-55
2021/03/25 11:36:31;;;;;;;;;;;;;;;24.13;30.76;100185.00;4484072;32;34034;-54
2021/03/25 11:39:07;;;;;;;;;;;;;;;24.10;31.05;100177.25;4492200;31;35308;-54
2021/03/25 11:41:35;;;;;;;;;;;;;;;24.07;30.92;100168.72;4498719;31;34045;-57
2021/03/25 11:44:02;;;;;;;;;;;;;;;24.05;30.79;100168.06;4499731;31;34002;-55
2021/03/25 11:46:29;;;;;;;;;;;;;;;24.04;31.19;100166.41;4499573;31;33199;-55
2021/03/25 11:49:05;;;;;;;;;;;;;;;24.03;31.42;100172.94;4500077;31;34099;-53
2021/03/25 11:51:34;;;;;;;;;;;;;;;24.02;31.62;100177.56;4500074;31;34212;-53
2021/03/25 11:54:01;;;;;;;;;;;;;;;24.01;31.80;100170.41;4498414;31;33773;-54
2021/03/25 11:56:30;;;;;;;;;;;;;;;24.01;32.01;100158.66;4499738;31;33275;-52
2021/03/25 11:58:58;;;;;;;;;;;;;;;24.00;32.24;100159.72;4498746;31;34212;-51
2021/03/25 12:01:25;;;;;;;;;;;;;;;24.00;32.40;100160.56;4500005;31;34010;-56
2021/03/25 12:03:53;;;;;;;;;;;;;;;24.00;32.45;100151.56;4499937;31;34076;-52
2021/03/25 12:06:25;;;;;;;;;;;;;;;24.00;32.58;100148.84;4499864;31;33410;-57
2021/03/25 12:09:12;;;;;;;;;;;;;;;23.99;32.65;100144.44;4494837;31;33666;-54
2021/03/25 12:11:41;;;;;;;;;;;;;;;23.98;32.79;100142.78;4475714;32;33703;-55
2021/03/25 12:14:08;;;;;;;;;;;;;;;23.96;32.86;100148.44;4483936;32;34274;-56
2021/03/25 12:17:04;;;;;;;;;;;;;;;23.96;33.01;100147.59;4483679;32;34094;-55
2021/03/25 12:19:50;;;;;;;;;;;;;;;23.95;33.10;100146.78;4484006;32;34888;-54
2021/03/25 12:22:28;;;;;;;;;;;;;;;23.92;33.24;100139.03;4483695;32;34181;-53
2021/03/25 12:24:55;;;;;;;;;;;;;;;23.91;33.18;100140.91;4484042;32;33818;-57
2021/03/25 12:27:23;;;;;;;;;;;;;;;23.89;33.25;100137.59;4480193;32;33548;-51
2021/03/25 12:29:51;;;;;;;;;;;;;;;23.89;33.36;100134.03;4492633;31;33949;-53
2021/03/25 12:32:20;;;;;;;;;;;;;;;23.87;33.25;100133.41;4499478;31;34992;-51
2021/03/25 12:35:06;;;;;;;;;;;;;;;23.87;33.11;100131.50;4466704;32;34409;-51
2021/03/25 12:37:33;;;;;;;;;;;;;;;23.85;33.21;100130.91;4467762;32;33277;-50
2021/03/25 12:40:01;;;;;;;;;;;;;;;23.85;33.27;100119.19;4467808;32;34163;-59
2021/03/25 12:42:29;;;;;;;;;;;;;;;23.85;33.37;100117.28;4467889;32;34207;-57
2021/03/25 12:44:56;;;;;;;;;;;;;;;23.84;33.52;100129.25;4470611;31;33652;-51
2021/03/25 12:47:23;;;;;;;;;;;;;;;23.83;33.61;100107.69;4499402;31;33362;-56
2021/03/25 12:49:59;;;;;;;;;;;;;;;23.82;33.67;100119.63;4499245;31;34206;-55
2021/03/25 12:52:27;;;;;;;;;;;;;;;23.83;33.67;100111.25;4499020;31;34170;-54
2021/03/25 12:54:54;;;;;;;;;;;;;;;23.83;33.76;100107.69;4498929;31;33745;-53
2021/03/25 12:57:23;;;;;;;;;;;;;;;23.83;33.81;100094.87;4500134;31;33319;-53
2021/03/25 12:59:49;;;;;;;;;;;;;;;23.83;33.83;100096.78;4499975;31;34146;-52
2021/03/25 13:02:16;;;;;;;;;;;;;;;23.82;33.94;100095.91;4501047;31;34121;-54
2021/03/25 13:04:44;;;;;;;;;;;;;;;23.81;33.97;100091.53;4500954;31;34330;-57